sensor_id;sensor_type;location;lat;lon;timestamp;temperature;humidity
19586;DHT22;9939;49.246;9.106;2024-03-25T00:01:16;5.80;99.90
19586;DHT22;9939;49.246;9.106;2024-03-25T00:03:42;5.90;99.90
19586;DHT22;9939;49.246;9.106;2024-03-25T00:06:09;5.90;99.90
19586;DHT22;9939;49.246;9.106;2024-03-25T00:08:35;5.90;99.90
19586;DHT22;9939;49.246;9.106;2024-03-25T00:11:01;5.80;99.90
19586;DHT22;9939;49.246;9.106;2024-03-25T00:13:27;5.70;99.90
19586;DHT22;9939;49.246;9.106;2024-03-25T00:15:53;5.80;99.90
19586;DHT22;9939;49.246;9.106;2024-03-25T00:18:19;5.80;99.90
19586;DHT22;9939;49.246;9.106;2024-03-25T00:20:45;5.70;99.90
19586;DHT22;9939;49.246;9.106;2024-03-25T00:23:11;5.80;99.90
19586;DHT22;9939;49.246;9.106;2024-03-25T00:25:38;5.80;99.90
19586;DHT22;9939;49.246;9.106;2024-03-25T00:28:04;5.70;99.90
19586;DHT22;9939;49.246;9.106;2024-03-25T00:30:30;5.80;99.90
19586;DHT22;9939;49.246;9.106;2024-03-25T00:32:56;5.80;99.90
19586;DHT22;9939;49.246;9.106;2024-03-25T00:35:22;5.80;99.90
19586;DHT22;9939;49.246;9.106;2024-03-25T00:37:49;5.70;99.90
19586;DHT22;9939;49.246;9.106;2024-03-25T00:40:15;5.80;99.90
19586;DHT22;9939;49.246;9.106;2024-03-25T00:42:41;5.70;99.90
19586;DHT22;9939;49.246;9.106;2024-03-25T00:45:07;5.70;99.90
19586;DHT22;9939;49.246;9.106;2024-03-25T00:47:33;5.70;99.90
19586;DHT22;9939;49.246;9.106;2024-03-25T00:50:00;5.60;99.90
19586;DHT22;9939;49.246;9.106;2024-03-25T00:52:26;5.60;99.90
19586;DHT22;9939;49.246;9.106;2024-03-25T00:54:52;5.60;99.90
19586;DHT22;9939;49.246;9.106;2024-03-25T00:57:18;5.70;99.90
19586;DHT22;9939;49.246;9.106;2024-03-25T00:59:45;5.50;99.90
19586;DHT22;9939;49.246;9.106;2024-03-25T01:02:11;5.40;99.90
19586;DHT22;9939;49.246;9.106;2024-03-25T01:04:37;5.40;99.90
19586;DHT22;9939;49.246;9.106;2024-03-25T01:07:04;5.30;99.90
19586;DHT22;9939;49.246;9.106;2024-03-25T01:09:30;5.20;99.90
19586;DHT22;9939;49.246;9.106;2024-03-25T01:11:56;5.20;99.90
19586;DHT22;9939;49.246;9.106;2024-03-25T01:14:22;5.20;99.90
19586;DHT22;9939;49.246;9.106;2024-03-25T01:16:48;5.20;99.90
19586;DHT22;9939;49.246;9.106;2024-03-25T01:19:14;5.30;99.90
19586;DHT22;9939;49.246;9.106;2024-03-25T01:21:40;5.20;99.90
19586;DHT22;9939;49.246;9.106;2024-03-25T01:24:06;5.30;99.90
19586;DHT22;9939;49.246;9.106;2024-03-25T01:26:33;5.30;99.90
19586;DHT22;9939;49.246;9.106;2024-03-25T01:28:59;5.20;99.90
19586;DHT22;9939;49.246;9.106;2024-03-25T01:31:25;5.20;99.90
19586;DHT22;9939;49.246;9.106;2024-03-25T01:33:51;5.20;99.90
19586;DHT22;9939;49.246;9.106;2024-03-25T01:36:17;5.20;99.90
19586;DHT22;9939;49.246;9.106;2024-03-25T01:38:47;5.20;99.90
19586;DHT22;9939;49.246;9.106;2024-03-25T01:41:13;5.20;99.90
19586;DHT22;9939;49.246;9.106;2024-03-25T01:43:42;5.10;99.90
19586;DHT22;9939;49.246;9.106;2024-03-25T01:46:09;5.00;99.90
19586;DHT22;9939;49.246;9.106;2024-03-25T01:48:35;5.10;99.90
19586;DHT22;9939;49.246;9.106;2024-03-25T01:51:02;5.00;99.90
19586;DHT22;9939;49.246;9.106;2024-03-25T01:53:29;4.80;99.90
19586;DHT22;9939;49.246;9.106;2024-03-25T01:55:56;4.90;99.90
19586;DHT22;9939;49.246;9.106;2024-03-25T01:58:25;4.80;99.90
19586;DHT22;9939;49.246;9.106;2024-03-25T02:00:53;4.80;99.90
19586;DHT22;9939;49.246;9.106;2024-03-25T02:03:21;4.70;99.90
19586;DHT22;9939;49.246;9.106;2024-03-25T02:05:50;4.80;99.90
19586;DHT22;9939;49.246;9.106;2024-03-25T02:08:19;4.70;99.90
19586;DHT22;9939;49.246;9.106;2024-03-25T02:10:45;4.60;99.90
19586;DHT22;9939;49.246;9.106;2024-03-25T02:13:12;4.60;99.90
19586;DHT22;9939;49.246;9.106;2024-03-25T02:15:38;4.70;99.90
19586;DHT22;9939;49.246;9.106;2024-03-25T02:18:06;4.60;99.90
19586;DHT22;9939;49.246;9.106;2024-03-25T02:20:33;4.60;99.90
19586;DHT22;9939;49.246;9.106;2024-03-25T02:22:59;4.40;99.90
19586;DHT22;9939;49.246;9.106;2024-03-25T02:25:25;4.50;99.90
19586;DHT22;9939;49.246;9.106;2024-03-25T02:27:51;4.50;99.90
19586;DHT22;9939;49.246;9.106;2024-03-25T02:30:17;4.60;99.90
19586;DHT22;9939;49.246;9.106;2024-03-25T02:32:43;4.50;99.90
19586;DHT22;9939;49.246;9.106;2024-03-25T02:35:15;4.50;99.90
19586;DHT22;9939;49.246;9.106;2024-03-25T02:37:42;4.50;99.90
19586;DHT22;9939;49.246;9.106;2024-03-25T02:40:09;4.50;99.90
19586;DHT22;9939;49.246;9.106;2024-03-25T02:42:38;4.40;99.90
19586;DHT22;9939;49.246;9.106;2024-03-25T02:45:06;4.30;99.90
19586;DHT22;9939;49.246;9.106;2024-03-25T02:47:32;4.40;99.90
19586;DHT22;9939;49.246;9.106;2024-03-25T02:49:58;4.20;99.90
19586;DHT22;9939;49.246;9.106;2024-03-25T02:52:24;4.20;99.90
19586;DHT22;9939;49.246;9.106;2024-03-25T02:54:50;4.30;99.90
19586;DHT22;9939;49.246;9.106;2024-03-25T02:57:17;4.20;99.90
19586;DHT22;9939;49.246;9.106;2024-03-25T02:59:43;4.30;99.90
19586;DHT22;9939;49.246;9.106;2024-03-25T03:02:09;4.20;99.90
19586;DHT22;9939;49.246;9.106;2024-03-25T03:04:35;4.20;99.90
19586;DHT22;9939;49.246;9.106;2024-03-25T03:07:02;4.20;99.90
19586;DHT22;9939;49.246;9.106;2024-03-25T03:09:28;4.20;99.90
19586;DHT22;9939;49.246;9.106;2024-03-25T03:11:54;4.20;99.90
19586;DHT22;9939;49.246;9.106;2024-03-25T03:14:20;4.20;99.90
19586;DHT22;9939;49.246;9.106;2024-03-25T03:16:46;4.10;99.90
19586;DHT22;9939;49.246;9.106;2024-03-25T03:19:13;4.10;99.90
19586;DHT22;9939;49.246;9.106;2024-03-25T03:21:39;4.00;99.90
19586;DHT22;9939;49.246;9.106;2024-03-25T03:24:05;4.00;99.90
19586;DHT22;9939;49.246;9.106;2024-03-25T03:26:31;4.10;99.90
19586;DHT22;9939;49.246;9.106;2024-03-25T03:28:57;4.00;99.90
19586;DHT22;9939;49.246;9.106;2024-03-25T03:31:25;3.90;99.90
19586;DHT22;9939;49.246;9.106;2024-03-25T03:33:52;3.80;99.90
19586;DHT22;9939;49.246;9.106;2024-03-25T03:36:19;3.80;99.90
19586;DHT22;9939;49.246;9.106;2024-03-25T03:38:46;3.70;99.90
19586;DHT22;9939;49.246;9.106;2024-03-25T03:41:12;3.80;99.90
19586;DHT22;9939;49.246;9.106;2024-03-25T03:43:39;3.70;99.90
19586;DHT22;9939;49.246;9.106;2024-03-25T03:46:05;3.70;99.90
19586;DHT22;9939;49.246;9.106;2024-03-25T03:48:32;3.70;99.90
19586;DHT22;9939;49.246;9.106;2024-03-25T03:50:59;3.60;99.90
19586;DHT22;9939;49.246;9.106;2024-03-25T03:53:25;3.60;99.90
19586;DHT22;9939;49.246;9.106;2024-03-25T03:55:55;3.60;99.90
19586;DHT22;9939;49.246;9.106;2024-03-25T03:58:22;3.50;99.90
19586;DHT22;9939;49.246;9.106;2024-03-25T04:00:49;3.60;99.90
19586;DHT22;9939;49.246;9.106;2024-03-25T04:03:16;3.40;99.90
19586;DHT22;9939;49.246;9.106;2024-03-25T04:05:42;3.50;99.90
19586;DHT22;9939;49.246;9.106;2024-03-25T04:08:08;3.50;99.90
19586;DHT22;9939;49.246;9.106;2024-03-25T04:10:34;3.50;99.90
19586;DHT22;9939;49.246;9.106;2024-03-25T04:13:02;3.40;99.90
19586;DHT22;9939;49.246;9.106;2024-03-25T04:15:28;3.50;99.90
19586;DHT22;9939;49.246;9.106;2024-03-25T04:17:54;3.30;99.90
19586;DHT22;9939;49.246;9.106;2024-03-25T04:20:21;3.30;99.90
19586;DHT22;9939;49.246;9.106;2024-03-25T04:22:47;3.20;99.90
19586;DHT22;9939;49.246;9.106;2024-03-25T04:25:13;3.10;99.90
19586;DHT22;9939;49.246;9.106;2024-03-25T04:27:43;3.20;99.90
19586;DHT22;9939;49.246;9.106;2024-03-25T04:30:10;3.30;99.90
19586;DHT22;9939;49.246;9.106;2024-03-25T04:32:38;3.20;99.90
19586;DHT22;9939;49.246;9.106;2024-03-25T04:35:04;3.20;99.90
19586;DHT22;9939;49.246;9.106;2024-03-25T04:37:32;3.20;99.90
19586;DHT22;9939;49.246;9.106;2024-03-25T04:39:58;3.20;99.90
19586;DHT22;9939;49.246;9.106;2024-03-25T04:42:24;3.20;99.90
19586;DHT22;9939;49.246;9.106;2024-03-25T04:44:51;3.10;99.90
19586;DHT22;9939;49.246;9.106;2024-03-25T04:47:17;3.10;99.90
19586;DHT22;9939;49.246;9.106;2024-03-25T04:49:44;3.10;99.90
19586;DHT22;9939;49.246;9.106;2024-03-25T04:52:14;3.00;99.90
19586;DHT22;9939;49.246;9.106;2024-03-25T04:54:43;3.00;99.90
19586;DHT22;9939;49.246;9.106;2024-03-25T04:57:09;2.90;99.90
19586;DHT22;9939;49.246;9.106;2024-03-25T04:59:36;3.00;99.90
19586;DHT22;9939;49.246;9.106;2024-03-25T05:02:02;3.00;99.90
19586;DHT22;9939;49.246;9.106;2024-03-25T05:04:28;3.00;99.90
19586;DHT22;9939;49.246;9.106;2024-03-25T05:06:54;2.90;99.90
19586;DHT22;9939;49.246;9.106;2024-03-25T05:09:20;3.10;99.90
19586;DHT22;9939;49.246;9.106;2024-03-25T05:11:46;3.10;99.90
19586;DHT22;9939;49.246;9.106;2024-03-25T05:14:12;3.00;99.90
19586;DHT22;9939;49.246;9.106;2024-03-25T05:16:38;3.00;99.90
19586;DHT22;9939;49.246;9.106;2024-03-25T05:19:04;3.10;99.90
19586;DHT22;9939;49.246;9.106;2024-03-25T05:21:33;3.00;99.90
19586;DHT22;9939;49.246;9.106;2024-03-25T05:23:59;2.90;99.90
19586;DHT22;9939;49.246;9.106;2024-03-25T05:26:25;2.90;99.90
19586;DHT22;9939;49.246;9.106;2024-03-25T05:28:58;3.00;99.90
19586;DHT22;9939;49.246;9.106;2024-03-25T05:31:24;2.90;99.90
19586;DHT22;9939;49.246;9.106;2024-03-25T05:33:51;2.90;99.90
19586;DHT22;9939;49.246;9.106;2024-03-25T05:36:18;2.80;99.90
19586;DHT22;9939;49.246;9.106;2024-03-25T05:38:43;2.80;99.90
19586;DHT22;9939;49.246;9.106;2024-03-25T05:41:10;2.80;99.90
19586;DHT22;9939;49.246;9.106;2024-03-25T05:43:36;2.80;99.90
19586;DHT22;9939;49.246;9.106;2024-03-25T05:46:03;2.90;99.90
19586;DHT22;9939;49.246;9.106;2024-03-25T05:48:30;3.00;99.90
19586;DHT22;9939;49.246;9.106;2024-03-25T05:51:04;3.10;99.90
19586;DHT22;9939;49.246;9.106;2024-03-25T05:53:34;3.10;99.90
19586;DHT22;9939;49.246;9.106;2024-03-25T05:56:00;3.20;99.90
19586;DHT22;9939;49.246;9.106;2024-03-25T05:58:27;3.30;99.90
19586;DHT22;9939;49.246;9.106;2024-03-25T06:00:53;3.40;99.90
19586;DHT22;9939;49.246;9.106;2024-03-25T06:03:20;3.40;99.90
19586;DHT22;9939;49.246;9.106;2024-03-25T06:05:46;3.50;99.90
19586;DHT22;9939;49.246;9.106;2024-03-25T06:08:12;3.40;99.90
19586;DHT22;9939;49.246;9.106;2024-03-25T06:10:51;3.40;99.90
19586;DHT22;9939;49.246;9.106;2024-03-25T06:13:17;3.40;99.90
19586;DHT22;9939;49.246;9.106;2024-03-25T06:15:43;3.30;99.90
19586;DHT22;9939;49.246;9.106;2024-03-25T06:18:09;3.50;99.90
19586;DHT22;9939;49.246;9.106;2024-03-25T06:20:36;3.50;99.90
19586;DHT22;9939;49.246;9.106;2024-03-25T06:23:02;3.50;99.90
19586;DHT22;9939;49.246;9.106;2024-03-25T06:25:28;3.70;99.90
19586;DHT22;9939;49.246;9.106;2024-03-25T06:27:55;3.70;99.90
19586;DHT22;9939;49.246;9.106;2024-03-25T06:30:21;3.80;99.90
19586;DHT22;9939;49.246;9.106;2024-03-25T06:33:06;4.00;99.90
19586;DHT22;9939;49.246;9.106;2024-03-25T06:35:51;4.20;99.90
19586;DHT22;9939;49.246;9.106;2024-03-25T06:38:18;4.40;99.90
19586;DHT22;9939;49.246;9.106;2024-03-25T06:40:45;4.50;99.90
19586;DHT22;9939;49.246;9.106;2024-03-25T06:43:11;4.80;99.90
19586;DHT22;9939;49.246;9.106;2024-03-25T06:45:37;5.00;99.90
19586;DHT22;9939;49.246;9.106;2024-03-25T06:48:04;5.20;99.90
19586;DHT22;9939;49.246;9.106;2024-03-25T06:50:30;5.40;99.90
19586;DHT22;9939;49.246;9.106;2024-03-25T06:52:56;5.70;99.90
19586;DHT22;9939;49.246;9.106;2024-03-25T06:55:23;5.90;99.90
19586;DHT22;9939;49.246;9.106;2024-03-25T06:57:53;6.10;99.90
19586;DHT22;9939;49.246;9.106;2024-03-25T07:00:19;6.20;99.90
19586;DHT22;9939;49.246;9.106;2024-03-25T07:02:51;6.30;99.90
19586;DHT22;9939;49.246;9.106;2024-03-25T07:05:17;6.50;99.90
19586;DHT22;9939;49.246;9.106;2024-03-25T07:07:43;6.50;99.90
19586;DHT22;9939;49.246;9.106;2024-03-25T07:10:09;6.60;99.90
19586;DHT22;9939;49.246;9.106;2024-03-25T07:12:35;6.70;99.90
19586;DHT22;9939;49.246;9.106;2024-03-25T07:15:01;6.70;99.90
19586;DHT22;9939;49.246;9.106;2024-03-25T07:17:27;6.80;99.90
19586;DHT22;9939;49.246;9.106;2024-03-25T07:19:53;6.90;99.90
19586;DHT22;9939;49.246;9.106;2024-03-25T07:22:19;7.10;99.90
19586;DHT22;9939;49.246;9.106;2024-03-25T07:24:45;7.40;99.90
19586;DHT22;9939;49.246;9.106;2024-03-25T07:27:11;7.40;99.90
19586;DHT22;9939;49.246;9.106;2024-03-25T07:29:38;7.50;99.90
19586;DHT22;9939;49.246;9.106;2024-03-25T07:32:04;7.40;99.90
19586;DHT22;9939;49.246;9.106;2024-03-25T07:34:30;7.40;99.90
19586;DHT22;9939;49.246;9.106;2024-03-25T07:36:56;7.40;99.90
19586;DHT22;9939;49.246;9.106;2024-03-25T07:39:22;7.50;99.90
19586;DHT22;9939;49.246;9.106;2024-03-25T07:41:53;7.60;99.90
19586;DHT22;9939;49.246;9.106;2024-03-25T07:44:19;7.60;99.90
19586;DHT22;9939;49.246;9.106;2024-03-25T07:46:46;7.80;99.90
19586;DHT22;9939;49.246;9.106;2024-03-25T07:49:12;8.10;99.90
19586;DHT22;9939;49.246;9.106;2024-03-25T07:51:38;8.20;99.90
19586;DHT22;9939;49.246;9.106;2024-03-25T07:54:05;8.50;99.90
19586;DHT22;9939;49.246;9.106;2024-03-25T07:56:32;9.30;99.90
19586;DHT22;9939;49.246;9.106;2024-03-25T07:59:03;9.80;99.90
19586;DHT22;9939;49.246;9.106;2024-03-25T08:01:30;10.50;99.90
19586;DHT22;9939;49.246;9.106;2024-03-25T08:03:56;10.80;99.90
19586;DHT22;9939;49.246;9.106;2024-03-25T08:06:22;10.80;99.90
19586;DHT22;9939;49.246;9.106;2024-03-25T08:08:48;11.30;99.90
19586;DHT22;9939;49.246;9.106;2024-03-25T08:11:14;11.00;99.90
19586;DHT22;9939;49.246;9.106;2024-03-25T08:13:41;10.20;99.90
19586;DHT22;9939;49.246;9.106;2024-03-25T08:16:07;10.70;99.90
19586;DHT22;9939;49.246;9.106;2024-03-25T08:18:33;11.30;99.90
19586;DHT22;9939;49.246;9.106;2024-03-25T08:21:00;11.50;99.90
19586;DHT22;9939;49.246;9.106;2024-03-25T08:23:26;10.80;99.90
19586;DHT22;9939;49.246;9.106;2024-03-25T08:25:52;10.80;99.90
19586;DHT22;9939;49.246;9.106;2024-03-25T08:28:18;11.80;99.90
19586;DHT22;9939;49.246;9.106;2024-03-25T08:30:44;13.10;99.90
19586;DHT22;9939;49.246;9.106;2024-03-25T08:33:10;14.00;99.90
19586;DHT22;9939;49.246;9.106;2024-03-25T08:35:38;15.20;99.90
19586;DHT22;9939;49.246;9.106;2024-03-25T08:38:04;15.50;99.90
19586;DHT22;9939;49.246;9.106;2024-03-25T08:40:30;15.70;99.90
19586;DHT22;9939;49.246;9.106;2024-03-25T08:42:56;15.80;99.90
19586;DHT22;9939;49.246;9.106;2024-03-25T08:45:22;15.10;99.90
19586;DHT22;9939;49.246;9.106;2024-03-25T08:47:48;14.30;99.90
19586;DHT22;9939;49.246;9.106;2024-03-25T08:50:14;13.30;99.90
19586;DHT22;9939;49.246;9.106;2024-03-25T08:52:40;13.10;99.90
19586;DHT22;9939;49.246;9.106;2024-03-25T08:55:07;13.90;99.90
19586;DHT22;9939;49.246;9.106;2024-03-25T08:57:33;14.50;99.90
19586;DHT22;9939;49.246;9.106;2024-03-25T08:59:59;14.90;99.90
19586;DHT22;9939;49.246;9.106;2024-03-25T09:02:25;14.20;99.90
19586;DHT22;9939;49.246;9.106;2024-03-25T09:04:51;13.60;99.90
19586;DHT22;9939;49.246;9.106;2024-03-25T09:07:19;14.70;99.90
19586;DHT22;9939;49.246;9.106;2024-03-25T09:09:46;16.00;99.90
19586;DHT22;9939;49.246;9.106;2024-03-25T09:12:30;16.30;99.90
19586;DHT22;9939;49.246;9.106;2024-03-25T09:14:57;17.00;99.90
19586;DHT22;9939;49.246;9.106;2024-03-25T09:17:23;18.30;99.90
19586;DHT22;9939;49.246;9.106;2024-03-25T09:19:50;18.00;99.90
19586;DHT22;9939;49.246;9.106;2024-03-25T09:22:17;17.20;99.90
19586;DHT22;9939;49.246;9.106;2024-03-25T09:24:43;17.20;97.80
19586;DHT22;9939;49.246;9.106;2024-03-25T09:27:11;15.40;99.70
19586;DHT22;9939;49.246;9.106;2024-03-25T09:29:37;16.30;99.70
19586;DHT22;9939;49.246;9.106;2024-03-25T09:32:03;17.30;97.40
19586;DHT22;9939;49.246;9.106;2024-03-25T09:34:29;18.00;98.80
19586;DHT22;9939;49.246;9.106;2024-03-25T09:36:55;19.40;96.30
19586;DHT22;9939;49.246;9.106;2024-03-25T09:39:21;20.40;94.80
19586;DHT22;9939;49.246;9.106;2024-03-25T09:45:47;19.50;93.50
19586;DHT22;9939;49.246;9.106;2024-03-25T09:48:16;18.70;94.10
19586;DHT22;9939;49.246;9.106;2024-03-25T09:50:45;19.70;94.30
19586;DHT22;9939;49.246;9.106;2024-03-25T09:53:11;20.00;93.70
19586;DHT22;9939;49.246;9.106;2024-03-25T09:55:37;21.30;91.70
19586;DHT22;9939;49.246;9.106;2024-03-25T09:58:04;21.10;90.90
19586;DHT22;9939;49.246;9.106;2024-03-25T10:00:31;22.00;90.00
19586;DHT22;9939;49.246;9.106;2024-03-25T10:02:57;21.00;91.30
19586;DHT22;9939;49.246;9.106;2024-03-25T10:05:23;21.00;90.50
19586;DHT22;9939;49.246;9.106;2024-03-25T10:07:49;21.10;90.80
19586;DHT22;9939;49.246;9.106;2024-03-25T10:10:19;20.90;90.90
19586;DHT22;9939;49.246;9.106;2024-03-25T10:12:46;20.40;92.50
19586;DHT22;9939;49.246;9.106;2024-03-25T10:15:18;21.30;91.60
19586;DHT22;9939;49.246;9.106;2024-03-25T10:17:44;19.60;93.60
19586;DHT22;9939;49.246;9.106;2024-03-25T10:20:14;19.70;92.70
19586;DHT22;9939;49.246;9.106;2024-03-25T10:22:44;20.50;91.00
19586;DHT22;9939;49.246;9.106;2024-03-25T10:25:39;18.40;93.50
19586;DHT22;9939;49.246;9.106;2024-03-25T10:28:05;19.90;92.40
19586;DHT22;9939;49.246;9.106;2024-03-25T10:30:32;18.20;94.70
19586;DHT22;9939;49.246;9.106;2024-03-25T10:33:05;18.10;95.70
19586;DHT22;9939;49.246;9.106;2024-03-25T10:35:33;20.30;93.70
19586;DHT22;9939;49.246;9.106;2024-03-25T10:38:04;21.40;92.00
19586;DHT22;9939;49.246;9.106;2024-03-25T10:40:34;21.50;91.10
19586;DHT22;9939;49.246;9.106;2024-03-25T10:43:08;21.00;91.40
19586;DHT22;9939;49.246;9.106;2024-03-25T10:45:37;21.50;88.50
19586;DHT22;9939;49.246;9.106;2024-03-25T10:48:09;22.30;88.60
19586;DHT22;9939;49.246;9.106;2024-03-25T10:50:38;21.30;86.80
19586;DHT22;9939;49.246;9.106;2024-03-25T10:53:05;19.50;90.50
19586;DHT22;9939;49.246;9.106;2024-03-25T10:55:34;20.00;91.00
19586;DHT22;9939;49.246;9.106;2024-03-25T10:58:01;21.30;89.80
19586;DHT22;9939;49.246;9.106;2024-03-25T11:00:29;22.20;85.40
19586;DHT22;9939;49.246;9.106;2024-03-25T11:02:56;22.00;86.30
19586;DHT22;9939;49.246;9.106;2024-03-25T11:05:23;22.40;85.40
19586;DHT22;9939;49.246;9.106;2024-03-25T11:07:49;22.20;85.90
19586;DHT22;9939;49.246;9.106;2024-03-25T11:10:16;21.90;84.40
19586;DHT22;9939;49.246;9.106;2024-03-25T11:12:42;22.80;81.80
19586;DHT22;9939;49.246;9.106;2024-03-25T11:15:09;20.60;84.10
19586;DHT22;9939;49.246;9.106;2024-03-25T11:17:35;19.80;87.70
19586;DHT22;9939;49.246;9.106;2024-03-25T11:20:15;20.50;86.70
19586;DHT22;9939;49.246;9.106;2024-03-25T11:22:52;19.90;87.80
19586;DHT22;9939;49.246;9.106;2024-03-25T11:25:20;20.40;85.90
19586;DHT22;9939;49.246;9.106;2024-03-25T11:27:47;19.20;86.70
19586;DHT22;9939;49.246;9.106;2024-03-25T11:30:14;20.40;89.40
19586;DHT22;9939;49.246;9.106;2024-03-25T11:32:44;21.30;85.40
19586;DHT22;9939;49.246;9.106;2024-03-25T11:35:10;21.80;83.50
19586;DHT22;9939;49.246;9.106;2024-03-25T11:37:43;21.90;85.80
19586;DHT22;9939;49.246;9.106;2024-03-25T11:40:10;22.10;82.50
19586;DHT22;9939;49.246;9.106;2024-03-25T11:42:42;22.20;83.70
19586;DHT22;9939;49.246;9.106;2024-03-25T11:45:16;22.30;83.90
19586;DHT22;9939;49.246;9.106;2024-03-25T11:47:48;23.60;79.90
19586;DHT22;9939;49.246;9.106;2024-03-25T11:50:19;23.80;78.20
19586;DHT22;9939;49.246;9.106;2024-03-25T11:52:45;24.60;77.20
19586;DHT22;9939;49.246;9.106;2024-03-25T11:55:16;24.20;77.70
19586;DHT22;9939;49.246;9.106;2024-03-25T11:57:43;21.20;78.20
19586;DHT22;9939;49.246;9.106;2024-03-25T12:00:09;18.70;83.20
19586;DHT22;9939;49.246;9.106;2024-03-25T12:02:44;18.40;88.90
19586;DHT22;9939;49.246;9.106;2024-03-25T12:05:13;21.00;86.10
19586;DHT22;9939;49.246;9.106;2024-03-25T12:07:39;23.00;80.30
19586;DHT22;9939;49.246;9.106;2024-03-25T12:10:05;24.50;75.30
19586;DHT22;9939;49.246;9.106;2024-03-25T12:12:50;25.40;71.50
19586;DHT22;9939;49.246;9.106;2024-03-25T12:15:22;25.80;71.00
19586;DHT22;9939;49.246;9.106;2024-03-25T12:17:49;23.70;74.50
19586;DHT22;9939;49.246;9.106;2024-03-25T12:20:17;22.70;75.60
19586;DHT22;9939;49.246;9.106;2024-03-25T12:22:44;24.70;74.80
19586;DHT22;9939;49.246;9.106;2024-03-25T12:25:10;25.60;70.50
19586;DHT22;9939;49.246;9.106;2024-03-25T12:27:37;25.80;70.80
19586;DHT22;9939;49.246;9.106;2024-03-25T12:30:08;24.90;70.00
19586;DHT22;9939;49.246;9.106;2024-03-25T12:32:43;23.20;71.70
19586;DHT22;9939;49.246;9.106;2024-03-25T12:35:11;23.80;73.90
19586;DHT22;9939;49.246;9.106;2024-03-25T12:37:38;25.60;70.30
19586;DHT22;9939;49.246;9.106;2024-03-25T12:40:10;26.30;68.40
19586;DHT22;9939;49.246;9.106;2024-03-25T12:42:37;26.90;67.00
19586;DHT22;9939;49.246;9.106;2024-03-25T12:45:05;26.00;67.10
19586;DHT22;9939;49.246;9.106;2024-03-25T12:47:32;25.60;67.20
19586;DHT22;9939;49.246;9.106;2024-03-25T12:49:58;23.60;71.70
19586;DHT22;9939;49.246;9.106;2024-03-25T12:52:25;23.80;70.20
19586;DHT22;9939;49.246;9.106;2024-03-25T12:54:51;22.30;72.10
19586;DHT22;9939;49.246;9.106;2024-03-25T12:57:17;23.50;72.00
19586;DHT22;9939;49.246;9.106;2024-03-25T12:59:44;24.20;72.40
19586;DHT22;9939;49.246;9.106;2024-03-25T13:02:12;25.30;71.90
19586;DHT22;9939;49.246;9.106;2024-03-25T13:04:39;26.30;69.30
19586;DHT22;9939;49.246;9.106;2024-03-25T13:07:07;25.60;69.90
19586;DHT22;9939;49.246;9.106;2024-03-25T13:09:33;25.60;69.40
19586;DHT22;9939;49.246;9.106;2024-03-25T13:12:00;25.20;68.60
19586;DHT22;9939;49.246;9.106;2024-03-25T13:14:26;25.80;66.80
19586;DHT22;9939;49.246;9.106;2024-03-25T13:16:52;25.90;67.70
19586;DHT22;9939;49.246;9.106;2024-03-25T13:19:18;26.40;65.20
19586;DHT22;9939;49.246;9.106;2024-03-25T13:21:44;27.20;64.30
19586;DHT22;9939;49.246;9.106;2024-03-25T13:24:10;26.70;65.30
19586;DHT22;9939;49.246;9.106;2024-03-25T13:26:36;29.00;62.30
19586;DHT22;9939;49.246;9.106;2024-03-25T13:29:02;29.30;60.50
19586;DHT22;9939;49.246;9.106;2024-03-25T13:31:29;28.70;62.30
19586;DHT22;9939;49.246;9.106;2024-03-25T13:33:55;27.50;62.10
19586;DHT22;9939;49.246;9.106;2024-03-25T13:36:21;27.30;62.20
19586;DHT22;9939;49.246;9.106;2024-03-25T13:38:47;26.10;63.10
19586;DHT22;9939;49.246;9.106;2024-03-25T13:41:13;28.20;63.00
19586;DHT22;9939;49.246;9.106;2024-03-25T13:43:43;27.50;61.50
19586;DHT22;9939;49.246;9.106;2024-03-25T13:46:09;26.00;63.10
19586;DHT22;9939;49.246;9.106;2024-03-25T13:48:35;27.20;63.20
19586;DHT22;9939;49.246;9.106;2024-03-25T13:51:01;28.30;61.10
19586;DHT22;9939;49.246;9.106;2024-03-25T13:53:27;28.70;61.80
19586;DHT22;9939;49.246;9.106;2024-03-25T13:55:53;27.90;60.00
19586;DHT22;9939;49.246;9.106;2024-03-25T13:58:19;27.20;61.00
19586;DHT22;9939;49.246;9.106;2024-03-25T14:00:45;26.10;62.70
19586;DHT22;9939;49.246;9.106;2024-03-25T14:03:11;28.10;61.40
19586;DHT22;9939;49.246;9.106;2024-03-25T14:05:37;28.20;61.40
19586;DHT22;9939;49.246;9.106;2024-03-25T14:08:04;27.60;60.90
19586;DHT22;9939;49.246;9.106;2024-03-25T14:10:30;26.00;63.40
19586;DHT22;9939;49.246;9.106;2024-03-25T14:12:56;25.60;63.70
19586;DHT22;9939;49.246;9.106;2024-03-25T14:15:22;25.20;64.20
19586;DHT22;9939;49.246;9.106;2024-03-25T14:17:48;26.50;63.80
19586;DHT22;9939;49.246;9.106;2024-03-25T14:20:14;26.10;62.40
19586;DHT22;9939;49.246;9.106;2024-03-25T14:22:40;26.10;62.20
19586;DHT22;9939;49.246;9.106;2024-03-25T14:25:07;27.60;61.90
19586;DHT22;9939;49.246;9.106;2024-03-25T14:27:34;27.10;62.20
19586;DHT22;9939;49.246;9.106;2024-03-25T14:30:00;26.40;63.00
19586;DHT22;9939;49.246;9.106;2024-03-25T14:32:27;25.90;64.90
19586;DHT22;9939;49.246;9.106;2024-03-25T14:34:53;26.20;64.70
19586;DHT22;9939;49.246;9.106;2024-03-25T14:37:21;28.60;62.30
19586;DHT22;9939;49.246;9.106;2024-03-25T14:39:47;30.30;60.40
19586;DHT22;9939;49.246;9.106;2024-03-25T14:42:13;30.10;59.90
19586;DHT22;9939;49.246;9.106;2024-03-25T14:44:39;27.30;61.70
19586;DHT22;9939;49.246;9.106;2024-03-25T14:47:05;27.20;61.70
19586;DHT22;9939;49.246;9.106;2024-03-25T14:49:31;26.10;63.10
19586;DHT22;9939;49.246;9.106;2024-03-25T14:51:57;24.60;65.20
19586;DHT22;9939;49.246;9.106;2024-03-25T14:54:37;25.60;65.30
19586;DHT22;9939;49.246;9.106;2024-03-25T14:57:03;26.80;63.10
19586;DHT22;9939;49.246;9.106;2024-03-25T14:59:29;25.30;64.30
19586;DHT22;9939;49.246;9.106;2024-03-25T15:02:02;26.10;64.00
19586;DHT22;9939;49.246;9.106;2024-03-25T15:04:28;26.10;63.00
19586;DHT22;9939;49.246;9.106;2024-03-25T15:06:56;26.20;64.20
19586;DHT22;9939;49.246;9.106;2024-03-25T15:09:22;26.50;62.40
19586;DHT22;9939;49.246;9.106;2024-03-25T15:11:48;26.40;62.90
19586;DHT22;9939;49.246;9.106;2024-03-25T15:14:15;26.90;62.40
19586;DHT22;9939;49.246;9.106;2024-03-25T15:16:41;27.90;61.40
19586;DHT22;9939;49.246;9.106;2024-03-25T15:19:08;29.30;60.60
19586;DHT22;9939;49.246;9.106;2024-03-25T15:21:34;28.50;60.00
19586;DHT22;9939;49.246;9.106;2024-03-25T15:24:02;26.80;62.50
19586;DHT22;9939;49.246;9.106;2024-03-25T15:26:28;27.00;62.20
19586;DHT22;9939;49.246;9.106;2024-03-25T15:28:54;26.50;62.90
19586;DHT22;9939;49.246;9.106;2024-03-25T15:31:20;26.20;63.10
19586;DHT22;9939;49.246;9.106;2024-03-25T15:33:46;25.10;64.70
19586;DHT22;9939;49.246;9.106;2024-03-25T15:36:13;25.10;65.10
19586;DHT22;9939;49.246;9.106;2024-03-25T15:38:40;25.10;65.30
19586;DHT22;9939;49.246;9.106;2024-03-25T15:41:06;25.60;64.90
19586;DHT22;9939;49.246;9.106;2024-03-25T15:43:32;26.00;64.00
19586;DHT22;9939;49.246;9.106;2024-03-25T15:45:59;26.00;63.40
19586;DHT22;9939;49.246;9.106;2024-03-25T15:48:25;25.20;63.90
19586;DHT22;9939;49.246;9.106;2024-03-25T15:50:52;24.80;64.70
19586;DHT22;9939;49.246;9.106;2024-03-25T15:53:20;24.70;64.70
19586;DHT22;9939;49.246;9.106;2024-03-25T15:55:46;25.80;64.30
19586;DHT22;9939;49.246;9.106;2024-03-25T15:58:12;25.60;65.20